sensor_id;sensor_type;location;lat;lon;timestamp;temperature;humidity
11848;DHT22;5983;49.966;8.052;2023-07-22T00:00:08;16.20;99.90
11848;DHT22;5983;49.966;8.052;2023-07-22T00:02:39;16.20;99.90
11848;DHT22;5983;49.966;8.052;2023-07-22T00:05:07;16.20;99.90
11848;DHT22;5983;49.966;8.052;2023-07-22T00:07:37;16.20;99.90
11848;DHT22;5983;49.966;8.052;2023-07-22T00:10:07;16.20;99.90
11848;DHT22;5983;49.966;8.052;2023-07-22T00:12:34;16.20;99.90
11848;DHT22;5983;49.966;8.052;2023-07-22T00:15:01;16.20;99.90
11848;DHT22;5983;49.966;8.052;2023-07-22T00:17:28;16.20;99.90
11848;DHT22;5983;49.966;8.052;2023-07-22T00:19:56;16.20;99.90
11848;DHT22;5983;49.966;8.052;2023-07-22T00:22:22;16.20;99.90
11848;DHT22;5983;49.966;8.052;2023-07-22T00:24:53;16.30;99.90
11848;DHT22;5983;49.966;8.052;2023-07-22T00:27:20;16.30;99.90
11848;DHT22;5983;49.966;8.052;2023-07-22T00:29:47;16.30;99.90
11848;DHT22;5983;49.966;8.052;2023-07-22T00:32:14;16.30;99.90
11848;DHT22;5983;49.966;8.052;2023-07-22T00:34:40;16.30;99.90
11848;DHT22;5983;49.966;8.052;2023-07-22T00:37:07;16.30;99.90
11848;DHT22;5983;49.966;8.052;2023-07-22T00:39:34;16.30;99.90
11848;DHT22;5983;49.966;8.052;2023-07-22T00:42:03;16.30;99.90
11848;DHT22;5983;49.966;8.052;2023-07-22T00:44:33;16.30;99.90
11848;DHT22;5983;49.966;8.052;2023-07-22T00:47:00;16.30;99.90
11848;DHT22;5983;49.966;8.052;2023-07-22T00:49:29;16.30;99.90
11848;DHT22;5983;49.966;8.052;2023-07-22T00:52:01;16.20;99.90
11848;DHT22;5983;49.966;8.052;2023-07-22T00:54:29;16.20;99.90
11848;DHT22;5983;49.966;8.052;2023-07-22T00:56:56;16.10;99.90
11848;DHT22;5983;49.966;8.052;2023-07-22T00:59:25;16.00;99.90
11848;DHT22;5983;49.966;8.052;2023-07-22T01:01:52;16.00;99.90
11848;DHT22;5983;49.966;8.052;2023-07-22T01:04:19;16.00;99.90
11848;DHT22;5983;49.966;8.052;2023-07-22T01:06:49;16.00;99.90
11848;DHT22;5983;49.966;8.052;2023-07-22T01:09:18;16.00;99.90
11848;DHT22;5983;49.966;8.052;2023-07-22T01:11:45;16.00;99.90
11848;DHT22;5983;49.966;8.052;2023-07-22T01:14:12;16.00;99.90
11848;DHT22;5983;49.966;8.052;2023-07-22T01:16:40;16.00;99.90
11848;DHT22;5983;49.966;8.052;2023-07-22T01:19:09;15.90;99.90
11848;DHT22;5983;49.966;8.052;2023-07-22T01:21:40;15.90;99.90
11848;DHT22;5983;49.966;8.052;2023-07-22T01:24:09;15.80;99.90
11848;DHT22;5983;49.966;8.052;2023-07-22T01:26:37;15.80;99.90
11848;DHT22;5983;49.966;8.052;2023-07-22T01:29:04;15.70;99.90
11848;DHT22;5983;49.966;8.052;2023-07-22T01:31:34;15.70;99.90
11848;DHT22;5983;49.966;8.052;2023-07-22T01:34:01;15.70;99.90
11848;DHT22;5983;49.966;8.052;2023-07-22T01:36:29;15.60;99.90
11848;DHT22;5983;49.966;8.052;2023-07-22T01:38:56;15.60;99.90
11848;DHT22;5983;49.966;8.052;2023-07-22T01:41:24;15.60;99.90
11848;DHT22;5983;49.966;8.052;2023-07-22T01:43:51;15.60;99.90
11848;DHT22;5983;49.966;8.052;2023-07-22T01:46:18;15.50;99.90
11848;DHT22;5983;49.966;8.052;2023-07-22T01:48:47;15.50;99.90
11848;DHT22;5983;49.966;8.052;2023-07-22T01:51:13;15.40;99.90
11848;DHT22;5983;49.966;8.052;2023-07-22T01:53:40;15.40;99.90
11848;DHT22;5983;49.966;8.052;2023-07-22T01:56:07;15.30;99.90
11848;DHT22;5983;49.966;8.052;2023-07-22T01:58:35;15.20;99.90
11848;DHT22;5983;49.966;8.052;2023-07-22T02:01:02;15.20;99.90
11848;DHT22;5983;49.966;8.052;2023-07-22T02:03:29;15.10;99.90
11848;DHT22;5983;49.966;8.052;2023-07-22T02:06:01;15.10;99.90
11848;DHT22;5983;49.966;8.052;2023-07-22T02:08:29;15.00;99.90
11848;DHT22;5983;49.966;8.052;2023-07-22T02:11:01;15.00;99.90
11848;DHT22;5983;49.966;8.052;2023-07-22T02:13:29;14.90;99.90
11848;DHT22;5983;49.966;8.052;2023-07-22T02:15:58;14.80;99.90
11848;DHT22;5983;49.966;8.052;2023-07-22T02:18:25;14.80;99.90
11848;DHT22;5983;49.966;8.052;2023-07-22T02:20:52;14.70;99.90
11848;DHT22;5983;49.966;8.052;2023-07-22T02:23:19;14.70;99.90
11848;DHT22;5983;49.966;8.052;2023-07-22T02:25:48;14.60;99.90
11848;DHT22;5983;49.966;8.052;2023-07-22T02:28:15;14.60;99.90
11848;DHT22;5983;49.966;8.052;2023-07-22T02:30:46;14.60;99.90
11848;DHT22;5983;49.966;8.052;2023-07-22T02:33:14;14.60;99.90
11848;DHT22;5983;49.966;8.052;2023-07-22T02:35:42;14.50;99.90
11848;DHT22;5983;49.966;8.052;2023-07-22T02:38:09;14.50;99.90
11848;DHT22;5983;49.966;8.052;2023-07-22T02:40:36;14.30;99.90
11848;DHT22;5983;49.966;8.052;2023-07-22T02:43:04;14.30;99.90
11848;DHT22;5983;49.966;8.052;2023-07-22T02:45:32;14.20;99.90
11848;DHT22;5983;49.966;8.052;2023-07-22T02:48:00;14.20;99.90
11848;DHT22;5983;49.966;8.052;2023-07-22T02:50:28;14.20;99.90
11848;DHT22;5983;49.966;8.052;2023-07-22T02:52:55;14.10;99.90
11848;DHT22;5983;49.966;8.052;2023-07-22T02:55:22;14.10;99.90
11848;DHT22;5983;49.966;8.052;2023-07-22T02:57:49;14.10;99.90
11848;DHT22;5983;49.966;8.052;2023-07-22T03:00:18;14.10;99.90
11848;DHT22;5983;49.966;8.052;2023-07-22T03:02:49;14.00;99.90
11848;DHT22;5983;49.966;8.052;2023-07-22T03:05:18;14.00;99.90
11848;DHT22;5983;49.966;8.052;2023-07-22T03:07:46;13.90;99.90
11848;DHT22;5983;49.966;8.052;2023-07-22T03:10:13;13.90;99.90
11848;DHT22;5983;49.966;8.052;2023-07-22T03:12:40;13.90;99.90
11848;DHT22;5983;49.966;8.052;2023-07-22T03:15:08;13.90;99.90
11848;DHT22;5983;49.966;8.052;2023-07-22T03:17:35;13.90;99.90
11848;DHT22;5983;49.966;8.052;2023-07-22T03:20:03;13.90;99.90
11848;DHT22;5983;49.966;8.052;2023-07-22T03:22:34;13.90;99.90
11848;DHT22;5983;49.966;8.052;2023-07-22T03:25:03;13.90;99.90
11848;DHT22;5983;49.966;8.052;2023-07-22T03:27:33;13.90;99.90
11848;DHT22;5983;49.966;8.052;2023-07-22T03:30:00;13.80;99.90
11848;DHT22;5983;49.966;8.052;2023-07-22T03:32:27;13.90;99.90
11848;DHT22;5983;49.966;8.052;2023-07-22T03:34:54;13.80;99.90
11848;DHT22;5983;49.966;8.052;2023-07-22T03:37:21;13.80;99.90
11848;DHT22;5983;49.966;8.052;2023-07-22T03:39:48;13.80;99.90
11848;DHT22;5983;49.966;8.052;2023-07-22T03:42:17;13.80;99.90
11848;DHT22;5983;49.966;8.052;2023-07-22T03:44:44;13.70;99.90
11848;DHT22;5983;49.966;8.052;2023-07-22T03:47:11;13.70;99.90
11848;DHT22;5983;49.966;8.052;2023-07-22T03:49:38;13.70;99.90
11848;DHT22;5983;49.966;8.052;2023-07-22T03:52:06;13.70;99.90
11848;DHT22;5983;49.966;8.052;2023-07-22T03:54:33;13.70;99.90
11848;DHT22;5983;49.966;8.052;2023-07-22T03:57:00;13.60;99.90
11848;DHT22;5983;49.966;8.052;2023-07-22T03:59:29;13.60;99.90
11848;DHT22;5983;49.966;8.052;2023-07-22T04:01:55;13.60;99.90
11848;DHT22;5983;49.966;8.052;2023-07-22T04:04:22;13.60;99.90
11848;DHT22;5983;49.966;8.052;2023-07-22T04:06:49;13.60;99.90
11848;DHT22;5983;49.966;8.052;2023-07-22T04:09:16;13.60;99.90
11848;DHT22;5983;49.966;8.052;2023-07-22T04:11:43;13.50;99.90
11848;DHT22;5983;49.966;8.052;2023-07-22T04:14:10;13.50;99.90
11848;DHT22;5983;49.966;8.052;2023-07-22T04:16:39;13.50;99.90
11848;DHT22;5983;49.966;8.052;2023-07-22T04:19:06;13.50;99.90
11848;DHT22;5983;49.966;8.052;2023-07-22T04:21:32;13.50;99.90
11848;DHT22;5983;49.966;8.052;2023-07-22T04:23:59;13.50;99.90
11848;DHT22;5983;49.966;8.052;2023-07-22T04:26:26;13.50;99.90
11848;DHT22;5983;49.966;8.052;2023-07-22T04:28:53;13.60;99.90
11848;DHT22;5983;49.966;8.052;2023-07-22T04:31:20;13.60;99.90
11848;DHT22;5983;49.966;8.052;2023-07-22T04:33:48;13.60;99.90
11848;DHT22;5983;49.966;8.052;2023-07-22T04:36:15;13.60;99.90
11848;DHT22;5983;49.966;8.052;2023-07-22T04:38:42;13.70;99.90
11848;DHT22;5983;49.966;8.052;2023-07-22T04:41:09;13.80;99.90
11848;DHT22;5983;49.966;8.052;2023-07-22T04:43:36;13.80;99.90
11848;DHT22;5983;49.966;8.052;2023-07-22T04:46:05;13.90;99.90
11848;DHT22;5983;49.966;8.052;2023-07-22T04:48:32;14.00;99.90
11848;DHT22;5983;49.966;8.052;2023-07-22T04:51:01;14.00;99.90
11848;DHT22;5983;49.966;8.052;2023-07-22T04:53:28;14.10;99.90
11848;DHT22;5983;49.966;8.052;2023-07-22T04:55:54;14.10;99.90
11848;DHT22;5983;49.966;8.052;2023-07-22T04:58:21;14.20;99.90
11848;DHT22;5983;49.966;8.052;2023-07-22T05:00:49;14.20;99.90
11848;DHT22;5983;49.966;8.052;2023-07-22T05:03:17;14.30;99.90
11848;DHT22;5983;49.966;8.052;2023-07-22T05:05:44;14.40;99.90
11848;DHT22;5983;49.966;8.052;2023-07-22T05:08:13;14.50;99.90
11848;DHT22;5983;49.966;8.052;2023-07-22T05:10:40;14.60;99.90
11848;DHT22;5983;49.966;8.052;2023-07-22T05:13:07;14.70;99.90
11848;DHT22;5983;49.966;8.052;2023-07-22T05:15:34;14.80;99.90
11848;DHT22;5983;49.966;8.052;2023-07-22T05:18:01;14.90;99.90
11848;DHT22;5983;49.966;8.052;2023-07-22T05:20:28;15.00;99.90
11848;DHT22;5983;49.966;8.052;2023-07-22T05:22:55;15.10;99.90
11848;DHT22;5983;49.966;8.052;2023-07-22T05:25:23;15.20;99.90
11848;DHT22;5983;49.966;8.052;2023-07-22T05:27:50;15.30;99.90
11848;DHT22;5983;49.966;8.052;2023-07-22T05:30:17;15.40;99.90
11848;DHT22;5983;49.966;8.052;2023-07-22T05:32:44;15.50;99.90
11848;DHT22;5983;49.966;8.052;2023-07-22T05:35:11;15.60;99.90
11848;DHT22;5983;49.966;8.052;2023-07-22T05:37:38;15.70;99.90
11848;DHT22;5983;49.966;8.052;2023-07-22T05:40:06;15.90;99.90
11848;DHT22;5983;49.966;8.052;2023-07-22T05:42:35;16.00;99.90
11848;DHT22;5983;49.966;8.052;2023-07-22T05:45:03;16.20;99.90
11848;DHT22;5983;49.966;8.052;2023-07-22T05:47:30;16.30;99.90
11848;DHT22;5983;49.966;8.052;2023-07-22T05:49:57;16.40;99.90
11848;DHT22;5983;49.966;8.052;2023-07-22T05:52:24;16.60;99.90
11848;DHT22;5983;49.966;8.052;2023-07-22T05:54:51;16.80;99.90
11848;DHT22;5983;49.966;8.052;2023-07-22T05:57:18;17.00;99.90
11848;DHT22;5983;49.966;8.052;2023-07-22T05:59:46;17.10;99.90
11848;DHT22;5983;49.966;8.052;2023-07-22T06:02:13;17.30;99.90
11848;DHT22;5983;49.966;8.052;2023-07-22T06:04:40;17.30;99.90
11848;DHT22;5983;49.966;8.052;2023-07-22T06:07:07;17.30;99.90
11848;DHT22;5983;49.966;8.052;2023-07-22T06:09:34;17.30;99.90
11848;DHT22;5983;49.966;8.052;2023-07-22T06:12:01;17.30;99.90
11848;DHT22;5983;49.966;8.052;2023-07-22T06:14:29;17.30;99.90
11848;DHT22;5983;49.966;8.052;2023-07-22T06:16:57;17.30;99.90
11848;DHT22;5983;49.966;8.052;2023-07-22T06:19:24;17.30;99.90
11848;DHT22;5983;49.966;8.052;2023-07-22T06:21:50;17.30;99.90
11848;DHT22;5983;49.966;8.052;2023-07-22T06:24:17;17.30;99.90
11848;DHT22;5983;49.966;8.052;2023-07-22T06:26:44;17.40;99.90
11848;DHT22;5983;49.966;8.052;2023-07-22T06:29:11;17.40;99.90
11848;DHT22;5983;49.966;8.052;2023-07-22T06:31:38;17.40;99.90
11848;DHT22;5983;49.966;8.052;2023-07-22T06:34:06;17.50;99.90
11848;DHT22;5983;49.966;8.052;2023-07-22T06:36:33;17.50;99.90
11848;DHT22;5983;49.966;8.052;2023-07-22T06:39:00;17.50;99.90
11848;DHT22;5983;49.966;8.052;2023-07-22T06:41:27;17.60;99.90
11848;DHT22;5983;49.966;8.052;2023-07-22T06:43:54;17.60;99.90
11848;DHT22;5983;49.966;8.052;2023-07-22T06:46:21;17.70;99.90
11848;DHT22;5983;49.966;8.052;2023-07-22T06:48:48;17.80;99.90
11848;DHT22;5983;49.966;8.052;2023-07-22T06:51:16;17.80;99.90
11848;DHT22;5983;49.966;8.052;2023-07-22T06:53:43;17.90;99.90
11848;DHT22;5983;49.966;8.052;2023-07-22T06:56:11;17.90;99.90
11848;DHT22;5983;49.966;8.052;2023-07-22T06:58:38;18.00;99.90
11848;DHT22;5983;49.966;8.052;2023-07-22T07:01:05;18.00;99.90
11848;DHT22;5983;49.966;8.052;2023-07-22T07:03:32;18.10;99.90
11848;DHT22;5983;49.966;8.052;2023-07-22T07:05:59;18.10;99.90
11848;DHT22;5983;49.966;8.052;2023-07-22T07:08:28;18.20;99.90
11848;DHT22;5983;49.966;8.052;2023-07-22T07:10:55;18.20;99.90
11848;DHT22;5983;49.966;8.052;2023-07-22T07:13:22;18.30;99.90
11848;DHT22;5983;49.966;8.052;2023-07-22T07:15:49;18.30;99.90
11848;DHT22;5983;49.966;8.052;2023-07-22T07:18:16;18.40;99.90
11848;DHT22;5983;49.966;8.052;2023-07-22T07:20:43;18.40;99.90
11848;DHT22;5983;49.966;8.052;2023-07-22T07:23:10;18.40;99.90
11848;DHT22;5983;49.966;8.052;2023-07-22T07:25:39;18.60;99.90
11848;DHT22;5983;49.966;8.052;2023-07-22T07:28:06;18.70;99.90
11848;DHT22;5983;49.966;8.052;2023-07-22T07:30:33;18.80;99.90
11848;DHT22;5983;49.966;8.052;2023-07-22T07:33:00;18.90;99.90
11848;DHT22;5983;49.966;8.052;2023-07-22T07:35:27;19.10;99.90
11848;DHT22;5983;49.966;8.052;2023-07-22T07:37:54;19.30;99.90
11848;DHT22;5983;49.966;8.052;2023-07-22T07:40:21;19.50;99.90
11848;DHT22;5983;49.966;8.052;2023-07-22T07:42:49;19.70;99.90
11848;DHT22;5983;49.966;8.052;2023-07-22T07:45:16;19.90;99.90
11848;DHT22;5983;49.966;8.052;2023-07-22T07:47:43;20.20;99.90
11848;DHT22;5983;49.966;8.052;2023-07-22T07:50:10;20.30;99.90
11848;DHT22;5983;49.966;8.052;2023-07-22T07:52:36;20.40;99.90
11848;DHT22;5983;49.966;8.052;2023-07-22T07:55:05;20.50;99.90
11848;DHT22;5983;49.966;8.052;2023-07-22T07:57:33;20.60;99.90
11848;DHT22;5983;49.966;8.052;2023-07-22T08:00:01;20.80;99.90
11848;DHT22;5983;49.966;8.052;2023-07-22T08:02:29;20.80;99.90
11848;DHT22;5983;49.966;8.052;2023-07-22T08:04:56;20.90;99.90
11848;DHT22;5983;49.966;8.052;2023-07-22T08:07:22;20.90;99.90
11848;DHT22;5983;49.966;8.052;2023-07-22T08:09:49;21.00;99.90
11848;DHT22;5983;49.966;8.052;2023-07-22T08:12:18;21.10;99.90
11848;DHT22;5983;49.966;8.052;2023-07-22T08:14:45;21.30;99.90
11848;DHT22;5983;49.966;8.052;2023-07-22T08:17:13;21.40;99.90
11848;DHT22;5983;49.966;8.052;2023-07-22T08:19:40;21.50;99.90
11848;DHT22;5983;49.966;8.052;2023-07-22T08:22:07;21.70;99.90
11848;DHT22;5983;49.966;8.052;2023-07-22T08:24:34;21.90;99.90
11848;DHT22;5983;49.966;8.052;2023-07-22T08:27:01;22.10;99.90
11848;DHT22;5983;49.966;8.052;2023-07-22T08:29:28;22.30;99.90
11848;DHT22;5983;49.966;8.052;2023-07-22T08:31:55;22.50;99.90
11848;DHT22;5983;49.966;8.052;2023-07-22T08:34:23;22.60;99.90
11848;DHT22;5983;49.966;8.052;2023-07-22T08:36:50;22.60;99.90
11848;DHT22;5983;49.966;8.052;2023-07-22T08:39:17;22.60;99.90
11848;DHT22;5983;49.966;8.052;2023-07-22T08:41:48;22.60;99.90
11848;DHT22;5983;49.966;8.052;2023-07-22T08:44:19;22.60;99.90
11848;DHT22;5983;49.966;8.052;2023-07-22T08:46:50;22.50;99.90
11848;DHT22;5983;49.966;8.052;2023-07-22T08:49:24;22.60;99.90
11848;DHT22;5983;49.966;8.052;2023-07-22T08:51:53;22.60;99.90
11848;DHT22;5983;49.966;8.052;2023-07-22T08:54:23;22.60;99.90
11848;DHT22;5983;49.966;8.052;2023-07-22T08:56:50;22.60;99.90
11848;DHT22;5983;49.966;8.052;2023-07-22T08:59:18;22.50;99.90
11848;DHT22;5983;49.966;8.052;2023-07-22T09:01:48;22.40;99.90
11848;DHT22;5983;49.966;8.052;2023-07-22T09:04:17;22.40;99.90
11848;DHT22;5983;49.966;8.052;2023-07-22T09:06:46;22.20;99.90
11848;DHT22;5983;49.966;8.052;2023-07-22T09:09:14;22.10;99.90
11848;DHT22;5983;49.966;8.052;2023-07-22T09:11:42;22.00;99.90
11848;DHT22;5983;49.966;8.052;2023-07-22T09:14:10;22.10;99.90
11848;DHT22;5983;49.966;8.052;2023-07-22T09:16:37;22.30;99.90
11848;DHT22;5983;49.966;8.052;2023-07-22T09:19:05;22.40;99.90
11848;DHT22;5983;49.966;8.052;2023-07-22T09:21:32;22.60;99.90
11848;DHT22;5983;49.966;8.052;2023-07-22T09:24:19;22.80;99.90
11848;DHT22;5983;49.966;8.052;2023-07-22T09:26:48;23.00;99.90
11848;DHT22;5983;49.966;8.052;2023-07-22T09:29:15;23.00;99.90
11848;DHT22;5983;49.966;8.052;2023-07-22T09:31:50;23.10;99.90
11848;DHT22;5983;49.966;8.052;2023-07-22T09:34:18;23.20;99.90
11848;DHT22;5983;49.966;8.052;2023-07-22T09:36:50;23.30;99.90
11848;DHT22;5983;49.966;8.052;2023-07-22T09:39:20;23.40;99.90
11848;DHT22;5983;49.966;8.052;2023-07-22T09:41:47;23.50;99.90
11848;DHT22;5983;49.966;8.052;2023-07-22T09:44:15;23.80;99.90
11848;DHT22;5983;49.966;8.052;2023-07-22T09:46:47;24.00;99.90
11848;DHT22;5983;49.966;8.052;2023-07-22T09:49:16;24.10;99.90
11848;DHT22;5983;49.966;8.052;2023-07-22T09:51:44;24.20;99.90
11848;DHT22;5983;49.966;8.052;2023-07-22T09:54:11;24.30;99.90
11848;DHT22;5983;49.966;8.052;2023-07-22T09:56:46;24.50;99.90
11848;DHT22;5983;49.966;8.052;2023-07-22T09:59:17;24.70;99.90
11848;DHT22;5983;49.966;8.052;2023-07-22T10:01:46;24.80;99.90
11848;DHT22;5983;49.966;8.052;2023-07-22T10:04:16;24.80;99.90
11848;DHT22;5983;49.966;8.052;2023-07-22T10:06:44;24.70;99.90
11848;DHT22;5983;49.966;8.052;2023-07-22T10:09:12;24.50;99.90
11848;DHT22;5983;49.966;8.052;2023-07-22T10:11:42;24.60;99.90
11848;DHT22;5983;49.966;8.052;2023-07-22T10:14:10;24.80;99.90
11848;DHT22;5983;49.966;8.052;2023-07-22T10:16:39;25.10;99.90
11848;DHT22;5983;49.966;8.052;2023-07-22T10:19:09;25.40;99.90
11848;DHT22;5983;49.966;8.052;2023-07-22T10:21:38;25.70;98.90
11848;DHT22;5983;49.966;8.052;2023-07-22T10:24:06;25.80;97.70
11848;DHT22;5983;49.966;8.052;2023-07-22T10:26:34;25.40;96.70
11848;DHT22;5983;49.966;8.052;2023-07-22T10:29:02;25.10;95.90
11848;DHT22;5983;49.966;8.052;2023-07-22T10:31:31;24.90;96.10
11848;DHT22;5983;49.966;8.052;2023-07-22T10:34:00;24.80;96.50
11848;DHT22;5983;49.966;8.052;2023-07-22T10:36:29;24.80;97.40
11848;DHT22;5983;49.966;8.052;2023-07-22T10:38:58;24.90;97.50
11848;DHT22;5983;49.966;8.052;2023-07-22T10:41:26;24.90;98.30
11848;DHT22;5983;49.966;8.052;2023-07-22T10:43:54;24.90;98.50
11848;DHT22;5983;49.966;8.052;2023-07-22T10:46:32;24.70;98.70
11848;DHT22;5983;49.966;8.052;2023-07-22T10:49:09;24.60;99.40
11848;DHT22;5983;49.966;8.052;2023-07-22T10:51:38;24.40;99.90
11848;DHT22;5983;49.966;8.052;2023-07-22T10:54:11;24.30;99.90
11848;DHT22;5983;49.966;8.052;2023-07-22T10:56:40;24.30;99.90
11848;DHT22;5983;49.966;8.052;2023-07-22T10:59:10;24.20;99.90
11848;DHT22;5983;49.966;8.052;2023-07-22T11:01:39;24.30;99.90
11848;DHT22;5983;49.966;8.052;2023-07-22T11:04:28;24.50;99.90
11848;DHT22;5983;49.966;8.052;2023-07-22T11:06:59;24.70;99.50
11848;DHT22;5983;49.966;8.052;2023-07-22T11:09:34;24.90;99.60
11848;DHT22;5983;49.966;8.052;2023-07-22T11:12:08;25.00;99.60
11848;DHT22;5983;49.966;8.052;2023-07-22T11:14:41;25.00;99.30
11848;DHT22;5983;49.966;8.052;2023-07-22T11:17:14;25.00;99.00
11848;DHT22;5983;49.966;8.052;2023-07-22T11:19:41;24.80;99.60
11848;DHT22;5983;49.966;8.052;2023-07-22T11:22:08;24.70;99.50
11848;DHT22;5983;49.966;8.052;2023-07-22T11:24:36;24.50;98.60
11848;DHT22;5983;49.966;8.052;2023-07-22T11:27:04;24.40;99.30
11848;DHT22;5983;49.966;8.052;2023-07-22T11:29:32;24.40;99.30
11848;DHT22;5983;49.966;8.052;2023-07-22T11:31:59;24.50;99.30
11848;DHT22;5983;49.966;8.052;2023-07-22T11:34:27;24.70;99.10
11848;DHT22;5983;49.966;8.052;2023-07-22T11:36:56;25.00;98.30
11848;DHT22;5983;49.966;8.052;2023-07-22T11:39:25;25.50;97.90
11848;DHT22;5983;49.966;8.052;2023-07-22T11:41:53;25.80;96.50
11848;DHT22;5983;49.966;8.052;2023-07-22T11:44:21;26.10;95.90
11848;DHT22;5983;49.966;8.052;2023-07-22T11:46:54;26.40;94.90
11848;DHT22;5983;49.966;8.052;2023-07-22T11:49:23;26.50;93.90
11848;DHT22;5983;49.966;8.052;2023-07-22T11:51:54;26.40;91.30
11848;DHT22;5983;49.966;8.052;2023-07-22T11:54:22;26.40;91.10
11848;DHT22;5983;49.966;8.052;2023-07-22T11:56:49;26.30;91.20
11848;DHT22;5983;49.966;8.052;2023-07-22T11:59:16;26.30;92.20
11848;DHT22;5983;49.966;8.052;2023-07-22T12:01:45;26.40;93.00
11848;DHT22;5983;49.966;8.052;2023-07-22T12:04:13;26.50;92.80
11848;DHT22;5983;49.966;8.052;2023-07-22T12:06:40;26.60;90.30
11848;DHT22;5983;49.966;8.052;2023-07-22T12:09:09;26.70;90.80
11848;DHT22;5983;49.966;8.052;2023-07-22T12:11:37;26.80;91.70
11848;DHT22;5983;49.966;8.052;2023-07-22T12:14:08;26.90;91.10
11848;DHT22;5983;49.966;8.052;2023-07-22T12:16:37;26.90;91.30
11848;DHT22;5983;49.966;8.052;2023-07-22T12:19:06;26.80;87.80
11848;DHT22;5983;49.966;8.052;2023-07-22T12:21:34;26.70;84.80
11848;DHT22;5983;49.966;8.052;2023-07-22T12:24:02;26.50;84.20
11848;DHT22;5983;49.966;8.052;2023-07-22T12:26:31;26.50;84.50
11848;DHT22;5983;49.966;8.052;2023-07-22T12:28:58;26.60;86.50
11848;DHT22;5983;49.966;8.052;2023-07-22T12:31:25;26.70;86.90
11848;DHT22;5983;49.966;8.052;2023-07-22T12:33:52;26.80;81.80
11848;DHT22;5983;49.966;8.052;2023-07-22T12:36:19;26.90;84.60
11848;DHT22;5983;49.966;8.052;2023-07-22T12:38:46;27.00;84.40
11848;DHT22;5983;49.966;8.052;2023-07-22T12:41:13;27.20;83.50
11848;DHT22;5983;49.966;8.052;2023-07-22T12:43:41;27.20;77.50
11848;DHT22;5983;49.966;8.052;2023-07-22T12:46:08;27.10;78.10
11848;DHT22;5983;49.966;8.052;2023-07-22T12:48:35;27.10;78.10
11848;DHT22;5983;49.966;8.052;2023-07-22T12:51:02;27.20;80.70
11848;DHT22;5983;49.966;8.052;2023-07-22T12:53:29;27.20;76.10
11848;DHT22;5983;49.966;8.052;2023-07-22T12:55:56;27.00;73.70
11848;DHT22;5983;49.966;8.052;2023-07-22T12:58:23;27.10;76.90
11848;DHT22;5983;49.966;8.052;2023-07-22T13:00:51;27.10;77.50
11848;DHT22;5983;49.966;8.052;2023-07-22T13:03:18;27.20;76.60
11848;DHT22;5983;49.966;8.052;2023-07-22T13:05:45;27.30;77.20
11848;DHT22;5983;49.966;8.052;2023-07-22T13:08:12;27.40;77.00
11848;DHT22;5983;49.966;8.052;2023-07-22T13:10:39;27.40;76.60
11848;DHT22;5983;49.966;8.052;2023-07-22T13:13:10;27.50;76.80
11848;DHT22;5983;49.966;8.052;2023-07-22T13:15:37;27.60;77.90
11848;DHT22;5983;49.966;8.052;2023-07-22T13:18:05;27.70;76.80
11848;DHT22;5983;49.966;8.052;2023-07-22T13:20:33;27.60;72.70
11848;DHT22;5983;49.966;8.052;2023-07-22T13:23:00;27.60;74.10
11848;DHT22;5983;49.966;8.052;2023-07-22T13:25:26;27.50;72.80
11848;DHT22;5983;49.966;8.052;2023-07-22T13:27:53;27.40;74.50
11848;DHT22;5983;49.966;8.052;2023-07-22T13:30:20;27.40;71.80
11848;DHT22;5983;49.966;8.052;2023-07-22T13:32:47;27.30;73.70
11848;DHT22;5983;49.966;8.052;2023-07-22T13:35:15;27.20;71.40
11848;DHT22;5983;49.966;8.052;2023-07-22T13:37:42;27.30;73.70
11848;DHT22;5983;49.966;8.052;2023-07-22T13:40:10;27.20;68.60
11848;DHT22;5983;49.966;8.052;2023-07-22T13:42:38;26.90;70.50
11848;DHT22;5983;49.966;8.052;2023-07-22T13:45:06;27.00;71.60
11848;DHT22;5983;49.966;8.052;2023-07-22T13:47:33;26.90;71.80
11848;DHT22;5983;49.966;8.052;2023-07-22T13:50:00;26.70;69.60
11848;DHT22;5983;49.966;8.052;2023-07-22T13:52:29;26.60;71.10
11848;DHT22;5983;49.966;8.052;2023-07-22T13:54:56;26.50;72.50
11848;DHT22;5983;49.966;8.052;2023-07-22T13:57:23;26.50;73.30
11848;DHT22;5983;49.966;8.052;2023-07-22T13:59:49;26.60;72.90
11848;DHT22;5983;49.966;8.052;2023-07-22T14:02:16;26.50;69.60
11848;DHT22;5983;49.966;8.052;2023-07-22T14:04:43;26.60;71.50
11848;DHT22;5983;49.966;8.052;2023-07-22T14:07:10;26.70;73.00
11848;DHT22;5983;49.966;8.052;2023-07-22T14:09:38;26.80;72.20
11848;DHT22;5983;49.966;8.052;2023-07-22T14:12:06;26.80;72.50
11848;DHT22;5983;49.966;8.052;2023-07-22T14:14:33;26.80;71.40
11848;DHT22;5983;49.966;8.052;2023-07-22T14:17:00;26.80;69.20
11848;DHT22;5983;49.966;8.052;2023-07-22T14:19:27;26.90;70.80
11848;DHT22;5983;49.966;8.052;2023-07-22T14:21:54;26.90;69.30
11848;DHT22;5983;49.966;8.052;2023-07-22T14:24:21;26.90;69.20
11848;DHT22;5983;49.966;8.052;2023-07-22T14:26:49;26.80;67.80
11848;DHT22;5983;49.966;8.052;2023-07-22T14:29:16;26.60;68.20
11848;DHT22;5983;49.966;8.052;2023-07-22T14:31:43;26.40;67.50
11848;DHT22;5983;49.966;8.052;2023-07-22T14:34:10;26.40;68.20
11848;DHT22;5983;49.966;8.052;2023-07-22T14:36:37;26.50;70.00
11848;DHT22;5983;49.966;8.052;2023-07-22T14:39:04;26.50;69.90
11848;DHT22;5983;49.966;8.052;2023-07-22T14:41:31;26.50;70.00
11848;DHT22;5983;49.966;8.052;2023-07-22T14:44:00;26.50;70.10
11848;DHT22;5983;49.966;8.052;2023-07-22T14:46:27;26.50;68.80
11848;DHT22;5983;49.966;8.052;2023-07-22T14:48:54;26.60;71.30
11848;DHT22;5983;49.966;8.052;2023-07-22T14:51:21;26.70;69.90
11848;DHT22;5983;49.966;8.052;2023-07-22T14:53:48;26.60;69.50
11848;DHT22;5983;49.966;8.052;2023-07-22T14:56:15;26.60;66.20
11848;DHT22;5983;49.966;8.052;2023-07-22T14:58:42;26.50;66.70
11848;DHT22;5983;49.966;8.052;2023-07-22T15:01:10;26.40;67.30
11848;DHT22;5983;49.966;8.052;2023-07-22T15:03:37;26.40;69.20
11848;DHT22;5983;49.966;8.052;2023-07-22T15:06:04;26.30;70.00
11848;DHT22;5983;49.966;8.052;2023-07-22T15:08:32;26.30;70.10
11848;DHT22;5983;49.966;8.052;2023-07-22T15:10:59;26.30;67.20
11848;DHT22;5983;49.966;8.052;2023-07-22T15:13:26;26.30;68.50
11848;DHT22;5983;49.966;8.052;2023-07-22T15:15:53;26.30;70.20
11848;DHT22;5983;49.966;8.052;2023-07-22T15:18:23;26.30;70.30
11848;DHT22;5983;49.966;8.052;2023-07-22T15:20:50;26.20;69.40
11848;DHT22;5983;49.966;8.052;2023-07-22T15:23:17;26.20;69.80
11848;DHT22;5983;49.966;8.052;2023-07-22T15:25:45;26.20;70.50
11848;DHT22;5983;49.966;8.052;2023-07-22T15:28:12;26.20;71.00
11848;DHT22;5983;49.966;8.052;2023-07-22T15:30:38;26.20;71.60
11848;DHT22;5983;49.966;8.052;2023-07-22T15:33:06;26.10;71.20
11848;DHT22;5983;49.966;8.052;2023-07-22T15:35:34;26.10;70.70
11848;DHT22;5983;49.966;8.052;2023-07-22T15:38:01;26.10;70.80
11848;DHT22;5983;49.966;8.052;2023-07-22T15:40:28;26.10;72.20
11848;DHT22;5983;49.966;8.052;2023-07-22T15:42:55;26.10;71.80
11848;DHT22;5983;49.966;8.052;2023-07-22T15:45:22;26.10;70.60
11848;DHT22;5983;49.966;8.052;2023-07-22T15:47:49;26.10;71.20